Time;durP1;ratioP1;P1;durP2;ratioP2;P2;SDS_P1;SDS_P2;PMS_P1;PMS_P2;Temp;Humidity;BMP_temperature;BMP_pressure;BME280_temperature;BME280_humidity;BME280_pressure;Samples;Min_cycle;Max_cycle;Signal;HPM_P1;HPM_P2
2023/03/09 00:00:22;;;;;;;46.20;20.88;;;22.40;70.20;;;21.56;42.79;96519.25;5049560;28;20060;-67
2023/03/09 00:03:15;;;;;;;49.15;21.02;;;22.40;70.40;;;21.60;42.52;96520.00;5049036;28;20091;-67
2023/03/09 00:05:55;;;;;;;55.72;19.73;;;22.40;70.40;;;21.58;42.64;96520.41;5049931;28;20663;-67
2023/03/09 00:08:21;;;;;;;47.47;22.58;;;22.40;70.20;;;21.55;42.53;96512.94;5049867;28;20866;-67
2023/03/09 00:10:52;;;;;;;51.53;21.83;;;22.40;70.20;;;21.51;42.71;96516.91;5051094;28;20056;-67
2023/03/09 00:13:21;;;;;;;46.58;22.38;;;22.40;70.10;;;21.53;42.62;96514.53;5042320;28;20044;-67
2023/03/09 00:15:50;;;;;;;47.55;20.27;;;22.40;69.90;;;21.54;42.72;96505.84;5050129;28;20045;-67
2023/03/09 00:18:20;;;;;;;42.88;18.58;;;22.40;69.60;;;21.53;42.68;96509.00;5050200;28;20110;-67
2023/03/09 00:20:46;;;;;;;46.38;20.83;;;22.40;70.00;;;21.48;42.92;96510.22;5050379;28;20045;-66
2023/03/09 00:23:12;;;;;;;51.70;21.00;;;22.40;70.00;;;21.49;42.54;96513.75;5046518;28;20895;-67
2023/03/09 00:25:38;;;;;;;45.65;21.13;;;22.40;70.00;;;21.52;42.42;96512.94;5050291;28;20045;-69
2023/03/09 00:28:05;;;;;;;38.45;19.42;;;22.40;70.10;;;21.49;42.12;96513.75;5048908;28;20057;-67
2023/03/09 00:30:31;;;;;;;47.42;20.60;;;22.40;69.70;;;21.47;42.62;96503.09;5048449;28;20041;-67
2023/03/09 00:32:57;;;;;;;50.78;21.85;;;22.40;70.00;;;21.49;42.41;96499.97;5049419;28;20048;-67
2023/03/09 00:35:23;;;;;;;42.20;19.00;;;22.40;69.40;;;21.46;42.85;96477.50;5050043;28;20033;-67
2023/03/09 00:37:49;;;;;;;45.20;19.35;;;22.40;69.70;;;21.45;42.23;96470.44;5047191;28;20044;-67
2023/03/09 00:40:15;;;;;;;40.50;18.85;;;22.40;69.60;;;21.46;42.46;96477.50;5046731;28;20049;-67
2023/03/09 00:42:42;;;;;;;41.95;19.48;;;22.40;69.70;;;21.48;42.43;96487.38;5044832;28;20203;-67
2023/03/09 00:45:09;;;;;;;41.58;19.13;;;22.40;69.70;;;21.48;42.72;96485.38;5041242;28;20045;-67
2023/03/09 00:47:36;;;;;;;47.80;19.75;;;22.40;70.20;;;21.41;42.40;96480.69;5049135;28;20741;-67
2023/03/09 00:50:04;;;;;;;44.47;20.42;;;22.40;69.50;;;21.42;42.69;96486.97;5043294;28;20048;-67
2023/03/09 00:52:30;;;;;;;36.85;17.85;;;22.40;70.00;;;21.44;42.45;96488.16;5047423;28;20080;-67
2023/03/09 00:54:57;;;;;;;36.55;18.83;;;22.40;70.00;;;21.48;43.10;96473.56;5047136;28;20140;-67
2023/03/09 00:57:24;;;;;;;39.13;19.15;;;22.40;69.90;;;21.40;42.74;96481.88;5042122;28;20404;-67
2023/03/09 00:59:53;;;;;;;41.03;18.77;;;22.40;69.70;;;21.42;43.25;96482.28;5043856;28;20037;-67
2023/03/09 01:02:19;;;;;;;38.55;18.92;;;22.40;70.30;;;21.40;43.00;96479.13;5048816;28;20053;-67
2023/03/09 01:04:46;;;;;;;36.22;17.92;;;22.40;69.70;;;21.39;42.77;96476.75;5046944;28;20116;-67
2023/03/09 01:07:12;;;;;;;37.63;16.50;;;22.40;69.70;;;21.45;42.72;96475.16;5046187;28;20052;-67
2023/03/09 01:09:39;;;;;;;33.08;16.23;;;22.40;70.30;;;21.44;42.91;96471.59;5049365;28;20040;-67
2023/03/09 01:12:05;;;;;;;36.80;16.17;;;22.40;71.10;;;21.46;42.26;96473.97;5049139;28;20048;-66
2023/03/09 01:14:32;;;;;;;35.30;17.92;;;22.30;70.30;;;21.46;42.50;96472.00;5046739;28;20060;-67
2023/03/09 01:16:58;;;;;;;41.05;19.95;;;22.30;70.40;;;21.45;42.72;96472.41;5042057;28;20033;-67
2023/03/09 01:19:25;;;;;;;35.88;16.13;;;22.30;70.20;;;21.41;42.61;96468.88;5049070;28;20087;-67
2023/03/09 01:21:50;;;;;;;32.63;16.10;;;22.40;69.90;;;21.41;42.47;96466.91;5037983;28;20041;-67
2023/03/09 01:24:17;;;;;;;37.92;16.27;;;22.40;69.90;;;21.43;42.03;96458.22;5048460;28;20048;-66
2023/03/09 01:26:43;;;;;;;36.38;17.00;;;22.30;69.30;;;21.46;42.41;96451.91;5047907;28;20049;-66
2023/03/09 01:29:09;;;;;;;26.70;14.98;;;22.40;69.20;;;21.50;42.03;96449.13;5047917;28;20049;-66
2023/03/09 01:31:35;;;;;;;30.60;16.88;;;22.30;70.00;;;21.49;42.16;96447.56;5043109;28;20051;-67
2023/03/09 01:34:01;;;;;;;31.45;16.52;;;22.40;69.20;;;21.45;42.06;96442.06;5045322;28;20087;-66
2023/03/09 01:36:27;;;;;;;36.85;18.45;;;22.40;69.20;;;21.47;42.27;96442.44;5048711;28;20052;-66
2023/03/09 01:38:53;;;;;;;29.40;16.38;;;22.40;69.20;;;21.51;42.13;96439.66;5048244;28;20036;-67
2023/03/09 01:41:20;;;;;;;30.05;17.83;;;22.40;69.20;;;21.50;41.84;96438.88;5047965;28;20074;-67
2023/03/09 01:43:56;;;;;;;30.65;16.55;;;22.40;69.20;;;21.52;42.24;96438.47;5043975;28;20317;-67
2023/03/09 01:46:25;;;;;;;35.50;16.98;;;22.40;69.20;;;21.50;42.30;96427.06;5048684;28;20059;-66
2023/03/09 01:48:59;;;;;;;30.20;14.50;;;22.40;69.30;;;21.50;42.30;96430.63;5046846;28;20052;-66
2023/03/09 01:51:56;;;;;;;36.28;16.15;;;22.40;69.20;;;21.50;42.30;96433.38;5042974;28;20235;-66
2023/03/09 01:54:55;;;;;;;32.25;16.15;;;22.40;69.20;;;21.48;42.47;96432.22;5043613;28;20048;-66
2023/03/09 01:57:47;;;;;;;30.02;16.20;;;22.30;69.50;;;21.48;42.30;96427.47;5048730;28;20178;-67
2023/03/09 02:00:18;;;;;;;32.53;16.17;;;22.40;69.30;;;21.51;42.19;96428.63;5044095;28;20399;-66
2023/03/09 02:02:47;;;;;;;32.20;15.65;;;22.40;69.20;;;21.50;42.34;96416.81;5048238;28;20049;-69
2023/03/09 02:05:17;;;;;;;29.73;15.82;;;22.40;69.30;;;21.49;42.29;96419.97;5012959;28;20033;-67
2023/03/09 02:07:44;;;;;;;26.88;14.68;;;22.40;69.20;;;21.52;41.90;96424.69;5031010;28;20051;-67
2023/03/09 02:10:22;;;;;;;34.22;17.55;;;22.40;69.30;;;21.53;41.81;96424.28;5028833;28;20099;-66
2023/03/09 02:12:52;;;;;;;28.40;16.85;;;22.40;69.30;;;21.50;42.11;96421.53;5043633;28;20135;-66
2023/03/09 02:15:20;;;;;;;24.38;14.13;;;22.40;69.20;;;21.52;42.57;96419.16;5030997;28;20466;-66
2023/03/09 02:17:46;;;;;;;27.58;15.23;;;22.40;69.60;;;21.51;42.38;96417.59;5048590;28;20428;-66
2023/03/09 02:20:27;;;;;;;33.83;15.32;;;22.40;69.60;;;21.52;42.20;96424.69;5029001;28;20464;-67
2023/03/09 02:22:53;;;;;;;26.30;15.20;;;22.40;69.20;;;21.49;42.38;96417.22;5044811;28;20053;-66
2023/03/09 02:25:40;;;;;;;31.50;16.05;;;22.40;69.60;;;21.52;42.73;96417.19;5047921;28;20055;-66
2023/03/09 02:28:07;;;;;;;32.35;16.83;;;22.40;69.90;;;21.52;42.44;96421.91;5042559;28;20064;-66
2023/03/09 02:30:35;;;;;;;27.67;15.18;;;22.40;69.80;;;21.51;42.12;96412.88;5027971;28;20045;-67
2023/03/09 02:33:04;;;;;;;31.08;14.77;;;22.40;69.60;;;21.54;42.49;96411.28;5021789;28;20452;-67
2023/03/09 02:35:30;;;;;;;26.60;14.63;;;22.40;69.70;;;21.48;42.69;96418.41;5047284;28;20523;-67
2023/03/09 02:37:56;;;;;;;29.50;15.32;;;22.40;70.10;;;21.53;42.46;96412.47;5045453;28;20041;-66
2023/03/09 02:40:33;;;;;;;23.55;14.55;;;22.30;69.80;;;21.52;42.70;96419.94;5046204;28;20522;-66
2023/03/09 02:43:03;;;;;;;28.77;14.65;;;22.40;70.00;;;21.52;42.74;96427.44;5022682;28;20053;-67
2023/03/09 02:45:30;;;;;;;29.65;13.95;;;22.40;70.30;;;21.49;42.46;96414.47;5047431;28;20472;-67
2023/03/09 02:47:59;;;;;;;26.13;14.45;;;22.40;70.10;;;21.46;42.64;96419.59;5044577;28;20063;-66
2023/03/09 02:50:25;;;;;;;23.52;13.05;;;22.40;70.20;;;21.51;42.55;96414.84;5046682;28;20052;-67
2023/03/09 02:52:51;;;;;;;27.95;14.35;;;22.40;70.00;;;21.50;42.54;96421.53;5051411;28;20049;-67
2023/03/09 02:55:18;;;;;;;25.25;13.60;;;22.40;69.80;;;21.50;42.70;96418.78;5050779;28;20121;-67
2023/03/09 02:57:44;;;;;;;31.58;14.40;;;22.30;69.80;;;21.53;42.30;96427.03;5050197;28;20048;-66
2023/03/09 03:00:12;;;;;;;26.00;13.63;;;22.30;69.80;;;21.51;42.32;96428.63;5051918;28;20041;-67
2023/03/09 03:02:38;;;;;;;29.67;14.65;;;22.30;69.70;;;21.52;42.38;96422.69;5051825;28;20049;-69
2023/03/09 03:05:05;;;;;;;24.38;13.18;;;22.40;69.80;;;21.50;42.37;96427.84;5048432;28;20071;-67
2023/03/09 03:07:31;;;;;;;22.17;12.70;;;22.40;69.50;;;21.54;42.24;96427.81;5045659;28;20052;-67
2023/03/09 03:09:57;;;;;;;28.42;13.70;;;22.30;69.60;;;21.52;42.41;96424.69;5050902;28;20734;-67
2023/03/09 03:12:23;;;;;;;26.77;13.52;;;22.30;69.70;;;21.52;42.62;96419.16;5051273;28;20127;-67
2023/03/09 03:14:49;;;;;;;22.95;13.35;;;22.40;70.10;;;21.53;42.37;96421.53;5049027;28;20045;-67
2023/03/09 03:17:15;;;;;;;22.25;12.73;;;22.40;69.80;;;21.52;42.67;96419.16;5051175;28;20049;-67
2023/03/09 03:19:42;;;;;;;22.25;12.73;;;22.40;69.90;;;21.49;42.41;96414.47;5051564;28;20051;-67
2023/03/09 03:22:08;;;;;;;24.35;12.65;;;22.30;69.80;;;21.52;42.34;96410.88;5051201;28;20045;-67
2023/03/09 03:24:38;;;;;;;20.00;12.98;;;22.30;69.70;;;21.54;42.21;96409.28;5049134;28;20472;-70
2023/03/09 03:27:04;;;;;;;23.20;12.23;;;22.30;69.70;;;21.52;42.67;96408.91;5051350;28;20059;-67
2023/03/09 03:29:30;;;;;;;28.45;13.55;;;22.40;70.00;;;21.49;42.39;96397.91;5050017;28;20368;-67
2023/03/09 03:31:57;;;;;;;20.42;12.10;;;22.30;69.60;;;21.49;42.33;96401.44;5047568;28;20080;-67
2023/03/09 03:34:23;;;;;;;20.00;11.57;;;22.30;69.60;;;21.49;42.25;96398.69;5049905;28;20045;-67
2023/03/09 03:36:49;;;;;;;26.45;12.75;;;22.30;69.80;;;21.50;42.30;96399.47;5050519;28;20045;-66
2023/03/09 03:39:15;;;;;;;18.80;10.98;;;22.40;69.60;;;21.49;42.43;96403.44;5050881;28;20041;-67
2023/03/09 03:41:41;;;;;;;23.02;10.77;;;22.40;69.80;;;21.49;42.29;96401.44;5046766;28;20779;-67
2023/03/09 03:44:07;;;;;;;24.90;12.98;;;22.30;69.60;;;21.51;42.26;96395.53;5050638;28;20095;-67
2023/03/09 03:46:36;;;;;;;20.60;12.55;;;22.40;69.50;;;21.48;42.46;96385.31;5049632;28;20048;-67
2023/03/09 03:49:02;;;;;;;24.63;11.77;;;22.30;69.60;;;21.50;41.92;96385.69;5050889;28;20103;-67
2023/03/09 03:51:28;;;;;;;23.42;11.75;;;22.30;69.50;;;21.48;42.30;96390.84;5046572;28;20087;-67
2023/03/09 03:53:54;;;;;;;21.48;12.20;;;22.40;69.70;;;21.41;42.43;96386.91;5049588;28;20107;-69
2023/03/09 03:56:20;;;;;;;19.42;11.40;;;22.30;69.50;;;21.38;42.34;96382.22;5051277;28;20041;-67
2023/03/09 03:58:46;;;;;;;24.35;11.48;;;22.40;69.40;;;21.43;42.47;96387.31;5046793;28;20109;-67
2023/03/09 04:01:12;;;;;;;17.95;10.77;;;22.30;69.30;;;21.45;42.54;96379.41;5049907;28;20041;-66
2023/03/09 04:03:39;;;;;;;28.00;12.00;;;22.30;69.40;;;21.42;42.52;96391.25;5050334;28;20045;-66
2023/03/09 04:06:05;;;;;;;19.10;11.45;;;22.30;69.60;;;21.45;42.15;96382.19;5051411;28;20086;-66
2023/03/09 04:08:31;;;;;;;21.65;11.18;;;22.30;69.30;;;21.45;42.20;96375.88;5050382;28;20052;-68
2023/03/09 04:10:57;;;;;;;21.50;10.73;;;22.30;69.40;;;21.50;42.43;96377.41;5026984;28;20182;-67
2023/03/09 04:13:24;;;;;;;21.13;11.45;;;22.30;70.10;;;21.44;42.28;96380.59;5050574;28;20045;-67
2023/03/09 04:15:50;;;;;;;16.67;9.95;;;22.30;69.80;;;21.36;42.50;96384.56;5050244;28;20067;-67
2023/03/09 04:18:16;;;;;;;16.13;10.10;;;22.30;69.70;;;21.41;42.26;96381.41;5040596;28;20045;-66
2023/03/09 04:20:42;;;;;;;17.65;10.38;;;22.30;69.60;;;21.43;42.83;96379.03;5049555;28;20747;-67
2023/03/09 04:23:08;;;;;;;18.75;10.80;;;22.30;69.60;;;21.43;42.15;96376.28;5028716;28;20040;-67
2023/03/09 04:25:34;;;;;;;18.45;10.73;;;22.30;69.40;;;21.41;42.53;96378.66;5043731;28;20053;-66
2023/03/09 04:28:01;;;;;;;22.85;10.93;;;22.30;69.30;;;21.43;42.37;96373.53;5044591;28;20053;-66
2023/03/09 04:30:26;;;;;;;17.13;10.73;;;22.30;69.10;;;21.41;42.03;96375.13;5050089;28;20049;-67
2023/03/09 04:32:53;;;;;;;20.05;10.52;;;22.30;69.20;;;21.42;42.09;96374.72;5047190;28;20045;-67
2023/03/09 04:35:18;;;;;;;18.92;10.07;;;22.30;69.10;;;21.42;41.77;96377.47;5046464;28;20048;-67
2023/03/09 04:37:45;;;;;;;20.65;11.40;;;22.30;69.10;;;21.38;42.28;96368.44;5045804;28;20432;-67
2023/03/09 04:40:11;;;;;;;17.55;9.93;;;22.30;69.20;;;21.37;41.63;96368.78;5049617;28;20049;-67
2023/03/09 04:42:38;;;;;;;20.02;10.38;;;22.30;69.10;;;21.39;42.05;96364.47;5047908;28;20041;-67
2023/03/09 04:45:04;;;;;;;16.42;9.35;;;22.30;69.10;;;21.37;41.99;96364.09;5047963;28;20041;-67
2023/03/09 04:47:31;;;;;;;19.45;10.00;;;22.30;69.10;;;21.37;41.65;96361.31;5049899;28;20045;-67
2023/03/09 04:49:56;;;;;;;13.80;9.15;;;22.30;69.10;;;21.34;41.86;96358.56;5048383;28;20041;-67
2023/03/09 04:52:23;;;;;;;20.48;9.55;;;22.30;69.00;;;21.34;41.85;96356.59;5049415;28;20049;-67
2023/03/09 04:54:49;;;;;;;14.68;9.02;;;22.20;68.90;;;21.35;41.71;96354.66;5045470;28;20059;-66
2023/03/09 04:57:15;;;;;;;20.17;10.40;;;22.20;69.00;;;21.33;41.72;96354.25;5047530;28;20563;-67
2023/03/09 04:59:41;;;;;;;16.50;9.02;;;22.20;69.00;;;21.35;41.68;96357.41;5048848;28;20049;-67
2023/03/09 05:02:07;;;;;;;17.45;9.57;;;22.20;68.80;;;21.29;41.75;96346.00;5047922;28;20144;-67
2023/03/09 05:04:33;;;;;;;16.70;8.63;;;22.20;68.80;;;21.26;41.51;96338.53;5048296;28;20052;-66
2023/03/09 05:06:59;;;;;;;19.00;9.68;;;22.20;68.50;;;21.29;41.68;96332.22;5050382;28;20053;-67
2023/03/09 05:09:25;;;;;;;12.32;8.93;;;22.20;68.60;;;21.31;41.62;96329.84;5049479;28;20143;-66
2023/03/09 05:11:52;;;;;;;15.50;9.15;;;22.20;68.50;;;21.28;41.48;96330.66;5045388;28;20061;-67
2023/03/09 05:14:21;;;;;;;13.77;9.13;;;22.20;68.40;;;21.25;41.53;96335.00;5049597;28;20044;-67
2023/03/09 05:16:51;;;;;;;13.32;8.23;;;22.20;68.30;;;21.26;41.37;96335.78;5050400;28;20411;-67
2023/03/09 05:19:19;;;;;;;17.65;9.85;;;22.20;68.60;;;21.27;41.44;96337.38;5049901;28;20048;-67
2023/03/09 05:21:45;;;;;;;15.40;8.75;;;22.20;68.30;;;21.26;41.70;96330.28;5040094;28;20061;-67
2023/03/09 05:24:11;;;;;;;11.70;8.85;;;22.20;68.40;;;21.21;41.54;96327.94;5049988;28;20132;-66
2023/03/09 05:26:37;;;;;;;15.38;8.95;;;22.20;68.30;;;21.24;41.54;96330.69;5048408;28;20071;-67
2023/03/09 05:29:03;;;;;;;12.25;7.80;;;22.20;68.30;;;21.28;41.42;96329.88;5044913;28;20496;-68
2023/03/09 05:31:30;;;;;;;13.90;9.32;;;22.20;68.30;;;21.26;41.51;96333.03;5044736;28;20385;-67
2023/03/09 05:33:55;;;;;;;15.05;9.05;;;22.20;68.50;;;21.21;41.91;96333.44;5044775;28;20036;-67
2023/03/09 05:36:24;;;;;;;12.38;8.95;;;22.20;68.60;;;21.24;41.47;96336.19;5045196;28;20049;-67
2023/03/09 05:38:50;;;;;;;15.23;8.65;;;22.20;68.50;;;21.21;41.38;96334.22;5042980;28;20045;-67
2023/03/09 05:41:17;;;;;;;14.23;8.98;;;22.20;68.40;;;21.22;41.44;96329.53;5045716;28;20384;-67
2023/03/09 05:43:43;;;;;;;12.30;8.65;;;22.20;68.40;;;21.21;41.65;96328.72;5046821;28;20040;-67
2023/03/09 05:46:14;;;;;;;12.75;8.73;;;22.20;68.40;;;21.22;41.54;96330.31;5047838;28;20049;-66
2023/03/09 05:48:40;;;;;;;13.67;8.43;;;22.20;68.30;;;21.21;41.48;96339.75;5041861;28;20069;-67
2023/03/09 05:51:10;;;;;;;14.90;8.13;;;22.20;68.40;;;21.23;41.60;96336.59;5044855;28;20291;-66
2023/03/09 05:53:36;;;;;;;16.77;8.85;;;22.20;68.30;;;21.22;41.32;96337.78;5045234;28;20051;-66
2023/03/09 05:56:03;;;;;;;13.98;8.63;;;22.20;68.40;;;21.21;41.88;96333.44;5047286;28;20051;-67
2023/03/09 05:58:29;;;;;;;12.07;8.55;;;22.20;69.00;;;21.26;41.66;96335.78;5046936;28;20149;-66
2023/03/09 06:00:56;;;;;;;14.15;9.20;;;22.20;69.00;;;21.28;42.09;96332.63;5046055;28;20048;-66
2023/03/09 06:03:23;;;;;;;15.73;8.10;;;22.20;69.10;;;21.28;42.17;96329.88;5046658;28;20060;-66
2023/03/09 06:06:01;;;;;;;17.35;8.77;;;22.20;69.00;;;21.32;42.60;96328.66;5047362;28;20040;-66
2023/03/09 06:08:27;;;;;;;18.90;8.60;;;22.20;69.90;;;21.34;42.34;96331.78;5046785;28;20539;-66
2023/03/09 06:10:59;;;;;;;26.77;9.15;;;22.20;69.90;;;21.38;42.58;96327.06;5044477;28;20492;-66
2023/03/09 06:13:25;;;;;;;12.77;7.95;;;22.20;70.10;;;21.41;42.47;96328.22;5047106;28;20095;-66
2023/03/09 06:15:51;;;;;;;14.18;8.27;;;22.20;69.80;;;21.39;43.16;96334.13;5044871;28;20045;-67
2023/03/09 06:18:17;;;;;;;16.02;9.30;;;22.20;70.40;;;21.40;43.05;96335.72;5036597;28;20427;-67
2023/03/09 06:20:44;;;;;;;22.92;9.23;;;22.20;70.60;;;21.49;43.34;96329.75;5041273;28;20055;-68
2023/03/09 06:23:10;;;;;;;19.90;9.52;;;22.20;71.00;;;21.60;43.34;96330.47;5043505;28;20075;-66
2023/03/09 06:25:37;;;;;;;20.17;9.38;;;22.30;71.40;;;21.63;43.79;96332.41;5043102;28;20045;-66
2023/03/09 06:28:03;;;;;;;18.92;8.10;;;22.30;71.60;;;21.65;43.93;96337.50;5042141;28;20083;-66
2023/03/09 06:30:30;;;;;;;16.15;8.05;;;22.30;72.00;;;21.61;43.60;96329.25;5045405;28;20072;-67
2023/03/09 06:32:59;;;;;;;24.15;8.77;;;22.30;71.80;;;21.55;43.85;96333.66;5045423;28;20774;-66
2023/03/09 06:35:25;;;;;;;13.38;8.50;;;22.30;71.80;;;21.51;43.84;96324.59;5042632;28;20048;-67
2023/03/09 06:37:51;;;;;;;17.88;8.25;;;22.30;71.60;;;21.51;43.86;96332.88;5041505;28;20041;-66
2023/03/09 06:40:18;;;;;;;15.63;8.15;;;22.30;71.80;;;21.50;43.83;96330.53;5046503;28;20049;-66
2023/03/09 06:42:45;;;;;;;10.25;8.10;;;22.30;71.50;;;21.54;43.83;96334.81;5045033;28;20068;-66
2023/03/09 06:45:11;;;;;;;13.43;7.90;;;22.30;71.80;;;21.58;43.63;96332.06;5038661;28;20406;-66
2023/03/09 06:47:37;;;;;;;18.42;9.32;;;22.30;71.60;;;21.59;43.93;96334.38;5039725;28;20294;-66
2023/03/09 06:50:04;;;;;;;15.30;8.27;;;22.30;71.60;;;21.62;43.73;96339.09;5036907;28;20048;-66
2023/03/09 06:52:30;;;;;;;17.70;7.05;;;22.30;71.50;;;21.57;43.79;96336.75;5037517;28;20041;-66
2023/03/09 06:54:56;;;;;;;18.45;8.80;;;22.30;71.80;;;21.61;43.55;96328.47;5043466;28;20037;-66
2023/03/09 06:57:22;;;;;;;15.05;8.07;;;22.30;71.80;;;21.64;44.06;96327.66;5040846;28;20485;-66
2023/03/09 06:59:49;;;;;;;25.20;9.02;;;22.30;71.60;;;21.61;43.90;96317.44;5042353;28;20435;-66
2023/03/09 07:02:15;;;;;;;12.13;8.10;;;22.30;71.70;;;21.63;44.13;96317.81;5033752;28;20064;-66
2023/03/09 07:04:41;;;;;;;18.55;7.80;;;22.30;72.10;;;21.60;43.84;96321.38;5034918;28;20056;-66
2023/03/09 07:07:08;;;;;;;13.85;8.48;;;22.30;71.60;;;21.58;43.58;96321.81;5041283;28;20054;-66
2023/03/09 07:09:35;;;;;;;25.95;9.48;;;22.40;71.50;;;21.57;43.57;96322.97;5039152;28;20041;-66
2023/03/09 07:12:04;;;;;;;14.07;8.52;;;22.40;71.60;;;21.65;44.37;96327.25;5041367;28;20488;-66
2023/03/09 07:14:30;;;;;;;15.60;8.10;;;22.30;72.40;;;21.66;44.02;96317.78;5039728;28;20480;-66
2023/03/09 07:16:56;;;;;;;27.65;8.20;;;22.40;72.30;;;21.72;44.00;96315.38;5040549;28;20057;-66
2023/03/09 07:19:23;;;;;;;19.23;8.63;;;22.40;72.30;;;21.79;43.71;96318.06;5039740;28;20049;-65
2023/03/09 07:21:49;;;;;;;16.25;8.38;;;22.40;72.20;;;21.75;43.58;96317.31;5042102;28;20481;-66
2023/03/09 07:24:16;;;;;;;16.08;7.93;;;22.40;71.90;;;21.77;43.67;96314.94;5039563;28;20187;-66
2023/03/09 07:26:42;;;;;;;14.55;7.93;;;22.40;72.00;;;21.80;43.34;96316.09;5044008;28;20052;-66
2023/03/09 07:29:09;;;;;;;20.95;8.95;;;22.40;71.70;;;21.84;43.87;96316.84;5041552;28;20395;-66
2023/03/09 07:31:35;;;;;;;25.23;8.40;;;22.40;72.50;;;21.83;43.67;96307.78;5040819;28;20045;-66
2023/03/09 07:34:01;;;;;;;21.45;9.18;;;22.40;72.00;;;21.72;43.73;96309.06;5037908;28;20049;-66
2023/03/09 07:36:27;;;;;;;17.70;8.75;;;22.40;71.80;;;21.71;43.73;96310.28;5042318;28;20087;-66
2023/03/09 07:38:53;;;;;;;16.65;7.78;;;22.40;71.90;;;21.71;43.87;96311.06;5048320;28;20582;-66
2023/03/09 07:41:19;;;;;;;15.73;8.38;;;22.40;72.30;;;21.63;43.85;96312.31;5044868;28;20069;-66
2023/03/09 07:43:45;;;;;;;14.50;8.23;;;22.40;72.10;;;21.61;43.76;96306.41;5045975;28;20395;-66
2023/03/09 07:46:13;;;;;;;18.20;8.93;;;22.40;72.00;;;21.61;44.01;96306.41;5047094;28;20052;-67
2023/03/09 07:48:40;;;;;;;30.95;9.70;;;22.40;71.90;;;21.50;44.12;96298.22;5042139;28;20356;-67
2023/03/09 07:51:07;;;;;;;21.05;8.88;;;22.30;71.80;;;21.52;43.93;96284.03;5044529;28;20048;-67
2023/03/09 07:53:37;;;;;;;18.23;7.72;;;22.40;72.00;;;21.48;43.77;96289.56;5043447;28;20095;-70
2023/03/09 07:56:04;;;;;;;16.40;7.40;;;22.30;71.60;;;21.55;43.79;96288.72;5047069;28;20056;-69
2023/03/09 07:58:32;;;;;;;29.52;8.55;;;22.40;71.70;;;21.54;43.69;96290.69;5025679;28;20040;-69
2023/03/09 08:00:58;;;;;;;33.88;8.20;;;22.40;71.50;;;21.61;43.66;96284.34;5040436;28;20111;-69
2023/03/09 08:03:24;;;;;;;22.00;8.13;;;22.30;71.60;;;21.61;43.86;96285.13;5040018;28;20060;-69
2023/03/09 08:05:54;;;;;;;35.95;8.40;;;22.40;71.80;;;21.62;43.92;96288.66;5044656;28;20045;-68
2023/03/09 08:08:24;;;;;;;38.90;9.75;;;22.30;71.90;;;21.58;43.77;96291.47;5046340;28;20041;-68
2023/03/09 08:10:51;;;;;;;26.85;8.30;;;22.40;72.10;;;21.64;43.30;96311.09;5047958;28;20052;-68
2023/03/09 08:13:17;;;;;;;61.65;11.25;;;22.30;71.50;;;21.62;43.27;96307.97;5029548;28;20867;-67
2023/03/09 08:15:43;;;;;;;34.55;8.77;;;22.30;71.50;;;21.64;43.94;96311.09;5042700;28;20041;-68
2023/03/09 08:18:11;;;;;;;35.35;10.63;;;22.40;71.80;;;21.67;44.03;96315.81;5043556;28;20503;-68
2023/03/09 08:20:37;;;;;;;35.85;10.80;;;22.40;71.50;;;21.67;43.73;96313.81;5043889;28;20045;-67
2023/03/09 08:23:06;;;;;;;40.13;9.82;;;22.40;71.60;;;21.62;43.53;96314.25;5045543;28;20131;-67
2023/03/09 08:25:32;;;;;;;51.60;8.38;;;22.40;71.70;;;21.58;43.57;96319.03;5050108;28;20052;-68
2023/03/09 08:27:58;;;;;;;34.50;10.15;;;22.40;71.70;;;21.58;43.84;96312.75;5044745;28;20061;-67
2023/03/09 08:30:25;;;;;;;40.10;8.05;;;22.40;71.30;;;21.59;43.48;96311.53;5046031;28;20501;-67
2023/03/09 08:32:52;;;;;;;38.10;9.60;;;22.40;71.30;;;21.59;43.57;96317.06;5044047;28;20554;-67
2023/03/09 08:35:22;;;;;;;27.88;7.85;;;22.40;71.30;;;21.59;43.67;96317.06;5043677;28;20049;-67
2023/03/09 08:37:49;;;;;;;33.72;9.75;;;22.30;71.20;;;21.61;43.63;96312.72;5045460;28;20049;-68
